Time;durP1;ratioP1;P1;durP2;ratioP2;P2;SDS_P1;SDS_P2;PMS_P1;PMS_P2;Temp;Humidity;BMP_temperature;BMP_pressure;BME280_temperature;BME280_humidity;BME280_pressure;Samples;Min_cycle;Max_cycle;Signal;HPM_P1;HPM_P2
2023/01/25 00:01:14;;;;;;;15.67;9.07;;;;;;;0.32;100.00;102922.36;5205136;55;1138963;-68
2023/01/25 00:06:19;;;;;;;18.00;9.87;;;;;;;0.35;100.00;102919.77;5103405;55;1138937;-69
2023/01/25 00:11:25;;;;;;;20.60;10.83;;;;;;;0.38;100.00;102921.52;5085051;56;1138835;-70
2023/01/25 00:16:31;;;;;;;18.40;8.97;;;;;;;0.40;100.00;102923.70;5051349;56;1140965;-69
2023/01/25 00:21:38;;;;;;;15.10;8.33;;;;;;;0.39;100.00;102928.47;5078370;56;1138770;-70
2023/01/25 00:26:44;;;;;;;16.65;8.55;;;;;;;0.39;100.00;102924.99;5109045;55;1143392;-71
2023/01/25 00:32:09;;;;;;;16.65;9.83;;;;;;;0.39;100.00;102914.15;5189080;55;1138972;-67
2023/01/25 00:37:30;;;;;;;11.90;7.70;;;;;;;0.41;100.00;102918.93;5178979;55;1139000;-67
2023/01/25 00:42:36;;;;;;;16.07;8.70;;;;;;;0.40;100.00;102917.63;5161247;55;1138949;-67
2023/01/25 00:47:42;;;;;;;26.27;10.75;;;;;;;0.37;100.00;102909.37;5099887;55;1138993;-71
2023/01/25 00:52:48;;;;;;;17.48;9.78;;;;;;;0.41;100.00;102907.65;5178642;55;1141043;-70
2023/01/25 00:57:54;;;;;;;14.23;8.97;;;;;;;0.42;100.00;102910.26;5201149;54;1138862;-68
2023/01/25 01:03:01;;;;;;;15.73;9.20;;;;;;;0.33;100.00;102905.88;5192986;54;1138914;-67
2023/01/25 01:08:07;;;;;;;15.90;8.57;;;;;;;0.36;100.00;102899.81;5189358;55;1138723;-73
2023/01/25 01:13:13;;;;;;;12.45;7.40;;;;;;;0.32;100.00;102906.73;5189236;55;1138724;-71
2023/01/25 01:18:19;;;;;;;18.10;9.13;;;;;;;0.31;100.00;102903.70;5189096;55;1138748;-68
2023/01/25 01:23:25;;;;;;;16.67;9.50;;;;;;;0.29;100.00;102906.76;5210946;54;1138840;-67
2023/01/25 01:28:32;;;;;;;17.90;9.87;;;;;;;0.33;100.00;102901.11;5208506;55;1138657;-71
2023/01/25 01:33:39;;;;;;;12.27;8.90;;;;;;;0.35;100.00;102905.89;5210121;55;1138725;-68
2023/01/25 01:38:45;;;;;;;16.20;9.37;;;;;;;0.30;100.00;102890.28;5210215;55;1138793;-69
2023/01/25 01:43:52;;;;;;;13.83;8.05;;;;;;;0.30;100.00;102886.38;5251963;54;1138913;-69
2023/01/25 01:49:27;;;;;;;14.87;8.17;;;;;;;0.31;100.00;102876.80;5299938;54;1138931;-71
2023/01/25 01:54:42;;;;;;;16.23;9.17;;;;;;;0.24;100.00;102870.73;5019533;56;1138769;-67
2023/01/25 01:59:53;;;;;;;12.33;7.63;;;;;;;0.23;100.00;102855.11;5175269;55;1138947;-70
2023/01/25 02:05:01;;;;;;;14.73;8.73;;;;;;;0.19;100.00;102858.56;5248710;54;1138893;-70
2023/01/25 02:10:11;;;;;;;12.70;7.37;;;;;;;0.15;100.00;102851.64;5219343;54;1138798;-68
2023/01/25 02:15:18;;;;;;;17.97;9.53;;;;;;;0.16;100.00;102846.41;5219387;54;1138809;-70
2023/01/25 02:20:36;;;;;;;13.30;8.97;;;;;;;0.14;100.00;102847.30;5185727;54;1138991;-68
2023/01/25 02:25:43;;;;;;;12.40;7.37;;;;;;;0.16;100.00;102841.63;5016638;57;1138750;-69
2023/01/25 02:30:49;;;;;;;16.07;8.87;;;;;;;0.17;100.00;102847.28;5022101;57;1138847;-68
2023/01/25 02:36:11;;;;;;;12.60;7.43;;;;;;;0.13;100.00;102849.02;5041583;57;1138753;-71
2023/01/25 02:41:36;;;;;;;15.13;8.48;;;;;;;0.09;100.00;102835.56;5021511;57;1138799;-72
2023/01/25 02:46:47;;;;;;;21.03;9.20;;;;;;;0.05;100.00;102824.70;5021995;57;1140933;-71
2023/01/25 02:51:56;;;;;;;14.93;8.23;;;;;;;0.04;100.00;102815.16;5135083;55;1138854;-71
2023/01/25 02:57:02;;;;;;;16.00;7.00;;;;;;;0.08;100.00;102814.74;5030748;55;1139124;-70
2023/01/25 03:02:09;;;;;;;17.73;8.53;;;;;;;0.07;100.00;102811.27;5010174;56;1138961;-69
2023/01/25 03:07:15;;;;;;;16.37;8.40;;;;;;;0.03;100.00;102797.81;5194745;55;1138847;-72
2023/01/25 03:12:22;;;;;;;20.08;10.35;;;;;;;0.04;100.00;102789.14;5214967;55;1138789;-71
2023/01/25 03:17:30;;;;;;;16.00;9.27;;;;;;;0.04;100.00;102788.27;5118493;55;1140758;-68
2023/01/25 03:22:35;;;;;;;17.97;9.53;;;;;;;-0.02;100.00;102783.95;5189418;54;1138809;-69
2023/01/25 03:27:41;;;;;;;17.57;9.70;;;;;;;-0.03;100.00;102775.70;5182729;55;1141026;-70
2023/01/25 03:32:50;;;;;;;19.60;9.03;;;;;;;-0.08;100.00;102773.52;5202537;55;1141055;-70
2023/01/25 03:37:57;;;;;;;15.67;10.33;;;;;;;-0.10;100.00;102768.31;5182288;55;1140954;-70
2023/01/25 03:43:03;;;;;;;17.57;10.37;;;;;;;-0.10;100.00;102759.20;5182237;55;1142996;-71
2023/01/25 03:48:09;;;;;;;17.17;9.60;;;;;;;-0.06;100.00;102749.25;5139885;55;1142884;-70
2023/01/25 03:53:31;;;;;;;18.32;8.55;;;;;;;-0.06;100.00;102741.45;5069461;56;1140840;-69
2023/01/25 03:58:44;;;;;;;17.93;10.17;;;;;;;-0.08;100.00;102734.50;5031913;56;1140901;-72
2023/01/25 04:03:50;;;;;;;16.60;9.55;;;;;;;-0.14;100.00;102736.65;5150216;54;1143157;-71
2023/01/25 04:08:56;;;;;;;12.23;7.63;;;;;;;-0.15;100.00;102740.11;5238631;54;1141100;-71
2023/01/25 04:14:04;;;;;;;13.73;8.63;;;;;;;-0.18;100.00;102717.16;5299995;54;1140894;-68
2023/01/25 04:19:11;;;;;;;14.33;7.57;;;;;;;-0.19;100.00;102719.32;5220982;54;1140913;-70
2023/01/25 04:24:17;;;;;;;13.98;8.98;;;;;;;-0.23;100.00;102708.47;5260167;54;1140910;-68
2023/01/25 04:29:23;;;;;;;14.07;8.30;;;;;;;-0.24;100.00;102697.63;5122294;56;1140837;-68
2023/01/25 04:34:29;;;;;;;16.57;8.87;;;;;;;-0.24;100.00;102697.63;5056110;56;1140958;-69
2023/01/25 04:39:35;;;;;;;10.00;6.83;;;;;;;-0.23;100.00;102683.34;5122475;56;1141047;-70
2023/01/25 04:44:42;;;;;;;11.10;7.10;;;;;;;-0.24;100.00;102672.92;5132557;56;1141054;-69
2023/01/25 04:49:48;;;;;;;12.07;7.45;;;;;;;-0.30;100.00;102671.17;5196569;55;1141068;-71
2023/01/25 04:54:56;;;;;;;16.45;10.00;;;;;;;-0.31;100.00;102665.57;5161198;55;1140872;-69
2023/01/25 05:00:03;;;;;;;9.47;6.40;;;;;;;-0.30;100.00;102665.97;5229936;55;1142966;-70
2023/01/25 05:05:11;;;;;;;13.40;7.87;;;;;;;-0.30;100.00;102665.97;4998904;56;1138710;-68
2023/01/25 05:10:17;;;;;;;12.90;7.97;;;;;;;-0.31;100.00;102662.10;5183898;55;1140798;-70
2023/01/25 05:15:24;;;;;;;13.47;7.53;;;;;;;-0.41;100.00;102659.47;5102168;56;1141053;-68
2023/01/25 05:20:30;;;;;;;13.50;8.40;;;;;;;-0.44;100.00;102667.69;5150722;55;1140989;-67
2023/01/25 05:30:47;;;;;;;11.88;7.28;;;;;;;-0.48;100.00;102672.47;5134629;56;1145585;-70
2023/01/25 05:36:05;;;;;;;8.50;6.17;;;;;;;-0.50;100.00;102677.66;5182323;55;1140803;-66
2023/01/25 05:41:12;;;;;;;17.33;7.70;;;;;;;-0.51;100.00;102666.82;5117648;56;1138932;-66
2023/01/25 05:46:18;;;;;;;9.63;6.93;;;;;;;-0.47;100.00;102672.47;5100425;55;1141105;-71
2023/01/25 05:51:25;;;;;;;10.67;6.57;;;;;;;-0.47;100.00;102675.50;5043642;57;1138900;-69
2023/01/25 05:56:33;;;;;;;13.80;7.42;;;;;;;-0.49;100.00;102668.13;5194550;55;1140965;-70
2023/01/25 06:01:39;;;;;;;15.00;9.43;;;;;;;-0.50;100.00;102668.56;5194792;55;1141126;-71
2023/01/25 06:06:46;;;;;;;17.50;9.13;;;;;;;-0.48;100.00;102665.53;5194752;55;1140952;-71
2023/01/25 06:11:51;;;;;;;13.62;8.20;;;;;;;-0.44;100.00;102658.59;5215244;55;1140838;-69
2023/01/25 06:16:58;;;;;;;12.47;7.55;;;;;;;-0.49;100.00;102657.73;5194765;55;1140938;-70
2023/01/25 06:22:12;;;;;;;16.97;9.57;;;;;;;-0.51;100.00;102662.92;5134374;55;1140780;-69
2023/01/25 06:27:17;;;;;;;16.40;9.30;;;;;;;-0.50;100.00;102656.00;5102869;55;1141024;-70
2023/01/25 06:32:24;;;;;;;16.40;10.00;;;;;;;-0.46;100.00;102653.38;5107472;55;1140943;-66
2023/01/25 06:37:30;;;;;;;11.73;7.60;;;;;;;-0.41;100.00;102643.87;5107656;56;1143168;-69
2023/01/25 06:42:36;;;;;;;12.35;8.80;;;;;;;-0.41;100.00;102646.47;5108001;55;1141359;-71
2023/01/25 06:47:42;;;;;;;16.70;10.93;;;;;;;-0.37;100.00;102649.52;5127017;56;1140848;-72
2023/01/25 06:52:54;;;;;;;23.65;13.90;;;;;;;-0.33;100.00;102645.62;5158225;55;1146910;-68
2023/01/25 06:58:01;;;;;;;14.07;9.78;;;;;;;-0.21;100.00;102643.91;5194035;55;1142900;-71
2023/01/25 07:03:07;;;;;;;17.40;10.50;;;;;;;-0.20;100.00;102648.24;5149443;55;1141116;-71
2023/01/25 07:08:13;;;;;;;19.30;12.17;;;;;;;-0.27;100.00;102640.42;5195524;54;1143200;-67
2023/01/25 07:13:19;;;;;;;17.13;10.73;;;;;;;-0.34;100.00;102641.30;5209355;54;1142954;-69
2023/01/25 07:18:25;;;;;;;15.77;11.07;;;;;;;-0.36;100.00;102636.95;5229879;54;1142891;-71
2023/01/25 07:23:33;;;;;;;18.13;11.30;;;;;;;-0.38;100.00;102630.88;5191963;55;1142877;-67
2023/01/25 07:28:39;;;;;;;17.33;12.10;;;;;;;-0.37;100.00;102632.63;5188108;55;1142988;-70
2023/01/25 07:33:51;;;;;;;20.88;12.20;;;;;;;-0.34;100.00;102633.49;5188260;55;1143084;-67
2023/01/25 07:38:58;;;;;;;21.27;11.25;;;;;;;-0.34;100.00;102623.09;5208175;54;1143032;-70
2023/01/25 07:44:04;;;;;;;18.55;10.72;;;;;;;-0.37;100.00;102617.02;5213210;54;1143032;-68
2023/01/25 07:49:15;;;;;;;21.10;11.77;;;;;;;-0.41;100.00;102606.61;5101019;56;1143468;-70
2023/01/25 07:54:20;;;;;;;12.87;7.97;;;;;;;-0.38;100.00;102604.02;5298437;54;1142830;-69
2023/01/25 07:59:26;;;;;;;19.17;10.47;;;;;;;-0.41;100.00;102599.68;5179173;54;1140911;-68
2023/01/25 08:04:33;;;;;;;14.90;9.60;;;;;;;-0.46;100.00;102582.37;5180264;55;1142994;-71
2023/01/25 08:09:40;;;;;;;15.05;9.70;;;;;;;-0.44;100.00;102582.77;5209497;54;1141082;-72
2023/01/25 08:14:46;;;;;;;15.30;10.53;;;;;;;-0.45;100.00;102578.87;5171072;55;1140873;-69
2023/01/25 08:19:51;;;;;;;14.67;9.73;;;;;;;-0.45;100.00;102569.34;5104604;55;1143167;-70
2023/01/25 08:24:59;;;;;;;13.65;8.90;;;;;;;-0.37;100.00;102575.86;5094337;56;1141024;-71
2023/01/25 08:30:05;;;;;;;19.87;12.30;;;;;;;-0.34;100.00;102567.20;5117541;55;1140951;-73
2023/01/25 08:35:10;;;;;;;16.27;10.37;;;;;;;-0.39;100.00;102558.95;5108200;56;1142854;-69
2023/01/25 08:40:16;;;;;;;14.57;9.60;;;;;;;-0.42;100.00;102553.75;5108047;55;1142936;-68
2023/01/25 08:45:22;;;;;;;15.73;9.40;;;;;;;-0.48;100.00;102549.00;5173997;55;1140877;-71
2023/01/25 08:50:28;;;;;;;19.23;8.60;;;;;;;-0.51;100.00;102547.70;5184983;55;1140932;-67
2023/01/25 08:55:36;;;;;;;19.03;11.60;;;;;;;-0.55;100.00;102541.63;5108018;55;1140988;-72
2023/01/25 09:00:43;;;;;;;25.80;13.28;;;;;;;-0.52;100.00;102543.36;5150932;55;1143010;-70
2023/01/25 09:05:52;;;;;;;21.20;10.47;;;;;;;-0.47;100.00;102548.14;5013656;57;1142864;-69
2023/01/25 09:11:08;;;;;;;21.90;10.90;;;;;;;-0.45;100.00;102545.08;5184963;55;1143101;-69
2023/01/25 09:16:21;;;;;;;22.67;13.23;;;;;;;-0.45;100.00;102540.75;5139131;55;1142930;-72
2023/01/25 09:21:26;;;;;;;25.47;14.17;;;;;;;-0.46;100.00;102526.02;5133507;56;1143078;-69
2023/01/25 09:26:34;;;;;;;31.73;15.90;;;;;;;-0.44;100.00;102520.83;5093005;55;1142923;-67
2023/01/25 09:31:45;;;;;;;24.37;12.83;;;;;;;-0.42;100.00;102516.49;5104702;56;1142906;-70
2023/01/25 09:37:05;;;;;;;21.53;12.03;;;;;;;-0.44;100.00;102520.39;5107663;56;1143147;-67
2023/01/25 09:42:27;;;;;;;19.40;12.87;;;;;;;-0.45;100.00;102526.45;5125111;56;1143207;-71
2023/01/25 09:47:53;;;;;;;23.17;12.37;;;;;;;-0.43;100.00;102523.86;5080981;55;1143197;-69
2023/01/25 09:53:06;;;;;;;19.80;10.78;;;;;;;-0.45;100.00;102506.96;5150900;54;1143223;-68
2023/01/25 09:58:19;;;;;;;21.85;13.75;;;;;;;-0.38;100.00;102510.44;5238293;54;1142899;-71
2023/01/25 10:03:44;;;;;;;27.65;10.65;;;;;;;-0.38;100.00;102500.91;5234198;54;1142963;-67
2023/01/25 10:09:02;;;;;;;19.33;10.80;;;;;;;-0.40;100.00;102500.03;5266114;54;1143126;-68
2023/01/25 10:14:14;;;;;;;27.42;12.58;;;;;;;-0.44;100.00;102494.40;5212909;54;1143322;-72
2023/01/25 10:19:42;;;;;;;23.77;12.20;;;;;;;-0.44;100.00;102495.70;5000728;56;1143014;-70
2023/01/25 10:25:16;;;;;;;22.23;12.70;;;;;;;-0.41;100.00;102475.34;4993789;56;1142940;-72
2023/01/25 10:30:38;;;;;;;26.55;13.80;;;;;;;-0.36;100.00;102478.81;4882845;57;1143121;-72
2023/01/25 10:35:48;;;;;;;28.47;12.90;;;;;;;-0.31;100.00;102460.19;5036373;55;1142852;-69
2023/01/25 10:41:07;;;;;;;29.63;14.53;;;;;;;-0.29;100.00;102457.12;5129553;55;1143106;-68
2023/01/25 10:46:23;;;;;;;30.13;12.93;;;;;;;-0.24;100.00;102463.62;5152475;55;1142963;-70
2023/01/25 10:51:36;;;;;;;25.70;13.57;;;;;;;-0.27;100.00;102454.08;5179281;54;1142985;-71
2023/01/25 10:56:44;;;;;;;20.08;11.25;;;;;;;-0.18;100.00;102448.02;5186817;55;1143102;-71
2023/01/25 11:01:49;;;;;;;21.87;12.50;;;;;;;-0.18;100.00;102434.58;5217817;54;1143001;-69
2023/01/25 11:06:55;;;;;;;28.25;14.80;;;;;;;-0.16;100.00;102428.08;5200171;54;1143011;-68
2023/01/25 11:12:08;;;;;;;20.47;12.40;;;;;;;-0.16;100.00;102415.08;5202509;54;1142889;-68
2023/01/25 11:17:30;;;;;;;24.83;12.93;;;;;;;-0.15;100.00;102402.48;5211575;54;1143180;-67
2023/01/25 11:22:36;;;;;;;21.20;11.90;;;;;;;-0.18;100.00;102385.17;5185216;54;1143010;-71
2023/01/25 11:27:42;;;;;;;20.90;9.93;;;;;;;-0.16;100.00;102378.23;5185688;55;1143034;-70
2023/01/25 11:32:49;;;;;;;23.90;12.02;;;;;;;-0.16;100.00;102372.17;5178882;55;1141073;-70
2023/01/25 11:38:16;;;;;;;17.40;9.53;;;;;;;-0.14;100.00;102365.20;5194612;55;1152645;-71
2023/01/25 11:43:54;;;;;;;18.80;9.90;;;;;;;-0.15;100.00;102362.17;5198317;54;1140960;-71
2023/01/25 11:49:26;;;;;;;19.20;11.78;;;;;;;-0.16;100.00;102353.97;5201802;54;1140855;-69
2023/01/25 11:54:36;;;;;;;16.50;8.87;;;;;;;-0.13;100.00;102340.49;5191671;54;1142963;-68
2023/01/25 11:59:58;;;;;;;20.20;10.08;;;;;;;-0.15;100.00;102330.97;5185807;54;1141072;-72
2023/01/25 12:05:37;;;;;;;18.33;10.07;;;;;;;-0.18;100.00;102318.00;5203867;54;1142938;-69
2023/01/25 12:11:15;;;;;;;14.47;8.70;;;;;;;-0.18;100.00;102310.20;5186805;54;1142923;-66
2023/01/25 12:16:40;;;;;;;23.03;9.23;;;;;;;-0.15;100.00;102304.53;5186668;54;1141138;-68
2023/01/25 12:22:05;;;;;;;24.25;11.45;;;;;;;-0.15;100.00;102284.16;5140564;54;1140901;-70
2023/01/25 12:27:43;;;;;;;18.40;10.00;;;;;;;-0.11;100.00;102286.74;5113974;56;1142982;-69
2023/01/25 12:33:04;;;;;;;20.45;10.05;;;;;;;-0.12;100.00;102264.21;5024072;57;1142854;-69
2023/01/25 12:38:25;;;;;;;18.53;10.83;;;;;;;-0.09;100.00;102260.73;5190351;54;1143166;-68
2023/01/25 12:43:50;;;;;;;30.97;13.97;;;;;;;-0.11;100.00;102241.23;5268555;54;1142929;-66
2023/01/25 12:49:00;;;;;;;26.77;13.53;;;;;;;-0.07;100.00;102242.09;5117727;55;1148526;-70
2023/01/25 12:54:34;;;;;;;42.88;21.70;;;;;;;-0.05;100.00;102232.11;5186544;55;1142898;-68
2023/01/25 12:59:59;;;;;;;24.02;13.34;;;;;;;-0.03;100.00;102226.47;5078816;56;1143131;-69
2023/01/25 13:05:30;;;;;;;25.47;13.70;;;;;;;0.00;100.00;102222.98;5122654;55;1142926;-72
2023/01/25 13:10:40;;;;;;;24.63;12.60;;;;;;;0.06;100.00;102215.12;5096365;55;1140796;-69
2023/01/25 13:15:47;;;;;;;22.97;13.77;;;;;;;0.10;100.00;102205.56;5088127;54;1140989;-68
2023/01/25 13:20:55;;;;;;;17.37;10.40;;;;;;;0.09;100.00;102203.40;5162042;54;1141464;-67
2023/01/25 13:26:27;;;;;;;21.65;11.28;;;;;;;0.09;100.00;102192.13;5210613;54;1140845;-71
2023/01/25 13:31:45;;;;;;;28.10;15.77;;;;;;;0.07;100.00;102185.63;5097608;54;1141065;-69
2023/01/25 13:36:56;;;;;;;29.08;15.32;;;;;;;0.06;100.00;102176.10;5167909;55;1141011;-69
2023/01/25 13:42:14;;;;;;;41.25;16.60;;;;;;;0.07;100.00;102175.66;5215133;55;1140917;-70
2023/01/25 13:47:24;;;;;;;28.83;14.17;;;;;;;0.06;100.00;102154.42;5236055;54;1140805;-67
2023/01/25 13:52:31;;;;;;;76.77;30.30;;;;;;;0.11;100.00;102151.36;5252614;54;1140826;-72
2023/01/25 13:57:36;;;;;;;50.80;22.33;;;;;;;0.15;100.00;102151.33;5209679;54;1140840;-70
2023/01/25 14:02:46;;;;;;;26.40;14.07;;;;;;;0.17;100.00;102148.69;5229987;54;1141108;-70
2023/01/25 14:07:55;;;;;;;28.07;13.53;;;;;;;0.11;100.00;102145.72;5199914;54;1140872;-67
2023/01/25 14:13:02;;;;;;;26.70;14.40;;;;;;;0.04;100.00;102140.56;5197903;54;1141048;-68
2023/01/25 14:18:18;;;;;;;25.47;13.43;;;;;;;-0.01;100.00;102115.92;5230298;54;1140897;-70
2023/01/25 14:23:27;;;;;;;31.93;15.03;;;;;;;-0.07;100.00;102109.02;5197698;54;1142932;-67
2023/01/25 14:28:32;;;;;;;40.07;19.90;;;;;;;-0.11;100.00;102103.84;5183297;54;1142801;-72
2023/01/25 14:33:44;;;;;;;37.13;17.43;;;;;;;-0.10;100.00;102097.34;5184975;55;1143068;-71
2023/01/25 14:38:47;;;;;;;38.95;17.50;;;;;;;-0.07;100.00;102086.05;5204737;55;1143088;-69
2023/01/25 14:43:56;;;;;;;33.27;16.03;;;;;;;-0.04;100.00;102089.93;5209481;54;1142987;-71
2023/01/25 14:49:26;;;;;;;28.98;15.28;;;;;;;-0.05;100.00;102083.00;5238940;54;1143005;-68
2023/01/25 14:54:46;;;;;;;34.63;17.50;;;;;;;-0.04;100.00;102079.53;5197009;54;1142904;-71
2023/01/25 14:59:54;;;;;;;43.20;21.37;;;;;;;-0.01;100.00;102079.07;5173942;55;1210967;-72
2023/01/25 15:05:13;;;;;;;36.17;17.77;;;;;;;-0.01;100.00;102071.27;5175576;55;1143058;-69
2023/01/25 15:10:31;;;;;;;39.58;19.55;;;;;;;0.05;100.00;102057.76;5176769;55;1143102;-66
2023/01/25 15:15:40;;;;;;;37.80;19.07;;;;;;;0.05;100.00;102044.32;5201728;54;1140842;-70
2023/01/25 15:20:48;;;;;;;37.23;18.13;;;;;;;0.03;100.00;102040.00;5197599;54;1150863;-68
2023/01/25 15:25:57;;;;;;;35.63;18.70;;;;;;;0.00;100.00;102035.72;5205392;55;1141043;-72
2023/01/25 15:31:05;;;;;;;40.00;19.90;;;;;;;-0.02;100.00;102025.77;5185103;55;1140971;-68
2023/01/25 15:36:13;;;;;;;33.78;17.62;;;;;;;-0.05;100.00;102018.85;5184674;55;1143009;-69
2023/01/25 15:41:19;;;;;;;32.45;17.05;;;;;;;-0.01;100.00;102020.55;5205548;55;1143148;-69
2023/01/25 15:46:30;;;;;;;32.93;17.10;;;;;;;0.01;100.00;102014.01;5252615;54;1143000;-72
2023/01/25 15:51:36;;;;;;;42.07;22.60;;;;;;;-0.01;100.00;102007.98;5212405;54;1141066;-69
2023/01/25 15:56:43;;;;;;;40.13;18.60;;;;;;;0.03;100.00;101999.69;5185226;55;1143112;-71
2023/01/25 16:01:50;;;;;;;34.80;17.63;;;;;;;0.08;100.00;101992.70;5215729;54;1140924;-70
2023/01/25 16:06:57;;;;;;;44.27;19.70;;;;;;;0.05;100.00;101990.14;5185489;55;1141213;-70
2023/01/25 16:12:03;;;;;;;28.63;14.50;;;;;;;0.07;100.00;101984.05;5227893;54;1140911;-72
2023/01/25 16:17:18;;;;;;;39.48;18.10;;;;;;;0.09;100.00;101975.79;5263670;54;1140996;-69
2023/01/25 16:22:24;;;;;;;35.20;16.60;;;;;;;0.05;100.00;101970.19;5209217;54;1140981;-67
2023/01/25 16:27:34;;;;;;;35.27;17.37;;;;;;;-0.01;100.00;101974.18;5184137;55;1140737;-73
2023/01/25 16:32:37;;;;;;;39.47;18.50;;;;;;;-0.06;100.00;101965.12;5198966;54;1143264;-67
2023/01/25 16:37:43;;;;;;;50.60;21.73;;;;;;;-0.05;100.00;101964.23;5135701;55;1143009;-70
2023/01/25 16:42:49;;;;;;;39.57;18.73;;;;;;;-0.01;100.00;101967.67;5182629;55;1142827;-71
2023/01/25 16:47:55;;;;;;;39.63;19.73;;;;;;;0.07;100.00;101956.73;5180241;55;1142917;-69
2023/01/25 16:53:01;;;;;;;40.90;18.90;;;;;;;0.07;100.00;101954.57;5109533;56;1140907;-67
2023/01/25 16:58:07;;;;;;;36.68;16.27;;;;;;;0.09;100.00;101962.78;5109171;55;1140931;-70
2023/01/25 17:03:12;;;;;;;38.28;17.95;;;;;;;0.11;100.00;101951.92;5161831;56;1140988;-69
2023/01/25 17:08:20;;;;;;;43.87;21.77;;;;;;;0.06;100.00;101934.64;5155573;56;1140858;-70
2023/01/25 17:13:26;;;;;;;44.80;21.50;;;;;;;0.01;100.00;101920.38;5108689;55;1140901;-69
2023/01/25 17:18:32;;;;;;;68.97;30.60;;;;;;;0.01;100.00;101920.38;5121452;55;1140763;-70
2023/01/25 17:23:40;;;;;;;42.97;20.73;;;;;;;0.00;100.00;101912.19;5067217;56;1141042;-69
2023/01/25 17:28:46;;;;;;;50.17;23.23;;;;;;;0.00;100.00;101911.71;5194424;54;1141120;-68
2023/01/25 17:33:52;;;;;;;48.63;21.37;;;;;;;0.03;100.00;101912.56;5196740;54;1140995;-67
2023/01/25 17:39:04;;;;;;;47.17;23.43;;;;;;;-0.01;100.00;101910.02;5211869;54;1141091;-67
2023/01/25 17:44:11;;;;;;;44.23;21.07;;;;;;;0.00;100.00;101905.21;5288678;54;1142866;-70
2023/01/25 17:49:18;;;;;;;59.67;26.87;;;;;;;0.07;100.00;101892.14;5246092;54;1140869;-69
2023/01/25 17:54:23;;;;;;;55.20;23.40;;;;;;;0.09;100.00;101884.75;5197816;54;1140924;-72
2023/01/25 17:59:29;;;;;;;78.87;41.08;;;;;;;0.13;100.00;101879.94;5208954;55;1140809;-67
2023/01/25 18:04:35;;;;;;;55.90;26.50;;;;;;;0.20;100.00;101882.86;5187932;55;1149220;-69
2023/01/25 18:09:41;;;;;;;89.30;38.83;;;;;;;0.19;100.00;101881.14;5196466;54;1141051;-68
2023/01/25 18:14:47;;;;;;;58.33;28.00;;;;;;;0.15;100.00;101872.98;5220426;54;1140935;-68
2023/01/25 18:19:53;;;;;;;55.23;26.07;;;;;;;0.14;100.00;101879.50;5156168;55;1140804;-68
2023/01/25 18:24:59;;;;;;;111.13;54.23;;;;;;;0.16;100.00;101872.50;5170412;55;1140884;-69
2023/01/25 18:30:33;;;;;;;54.57;26.23;;;;;;;0.17;100.00;101852.98;5173748;55;1142987;-68
2023/01/25 18:35:40;;;;;;;50.77;25.07;;;;;;;0.19;100.00;101856.42;5086929;56;1141081;-70
2023/01/25 18:40:46;;;;;;;56.33;20.53;;;;;;;0.23;100.00;101850.75;5140237;56;1140929;-70
2023/01/25 18:45:57;;;;;;;70.87;28.37;;;;;;;0.18;100.00;101842.99;5051767;56;1140925;-71
2023/01/25 18:51:10;;;;;;;65.03;24.00;;;;;;;0.15;100.00;101835.70;5026022;56;1141074;-71
2023/01/25 18:56:19;;;;;;;89.13;32.23;;;;;;;0.17;100.00;101820.90;5005145;57;1140973;-70
2023/01/25 19:01:26;;;;;;;61.80;24.33;;;;;;;0.19;100.00;101814.80;4970973;57;1141051;-71
2023/01/25 19:06:33;;;;;;;88.90;33.07;;;;;;;0.23;100.00;101811.28;4958200;57;1140919;-69
2023/01/25 19:11:39;;;;;;;70.43;31.73;;;;;;;0.23;100.00;101807.38;5038817;55;1141019;-71
2023/01/25 19:16:45;;;;;;;108.73;46.00;;;;;;;0.24;100.00;101800.44;5168225;55;1140898;-71
2023/01/25 19:21:52;;;;;;;73.00;27.53;;;;;;;0.25;100.00;101809.52;5089442;55;1143127;-69
2023/01/25 19:26:59;;;;;;;52.57;21.93;;;;;;;0.26;100.00;101801.28;5076574;56;1140990;-69
2023/01/25 19:32:05;;;;;;;57.30;21.60;;;;;;;0.22;100.00;101797.85;5145151;55;1141058;-67
2023/01/25 19:37:12;;;;;;;48.47;19.80;;;;;;;0.19;100.00;101781.42;5191793;55;1141149;-67
2023/01/25 19:42:19;;;;;;;49.70;21.67;;;;;;;0.15;100.00;101778.03;5191077;55;1140826;-70
2023/01/25 19:47:25;;;;;;;45.07;20.17;;;;;;;0.13;100.00;101775.89;5214151;55;1140908;-69
2023/01/25 19:52:32;;;;;;;45.43;19.73;;;;;;;0.11;100.00;101784.15;5148145;55;1140991;-67
2023/01/25 19:57:38;;;;;;;50.37;24.17;;;;;;;0.08;100.00;101767.28;5106839;56;1140993;-68
2023/01/25 20:02:46;;;;;;;44.73;18.55;;;;;;;0.09;100.00;101762.94;5106808;56;1140916;-66
2023/01/25 20:07:53;;;;;;;51.98;22.93;;;;;;;0.11;100.00;101752.08;5160668;55;1140739;-70
2023/01/25 20:12:59;;;;;;;47.70;19.40;;;;;;;0.13;100.00;101752.92;5193976;55;1140903;-68
2023/01/25 20:18:06;;;;;;;42.17;17.53;;;;;;;0.15;100.00;101745.52;5192546;55;1140898;-72
2023/01/25 20:23:13;;;;;;;49.86;22.90;;;;;;;0.17;100.00;101735.91;5214180;55;1140872;-68
2023/01/25 20:28:19;;;;;;;45.97;19.87;;;;;;;0.14;100.00;101728.19;5193988;55;1141146;-71
2023/01/25 20:33:26;;;;;;;52.23;21.23;;;;;;;0.17;100.00;101722.05;5194181;55;1140848;-70
2023/01/25 20:38:34;;;;;;;49.80;20.27;;;;;;;0.21;100.00;101715.92;5212606;55;1140917;-69
2023/01/25 20:43:51;;;;;;;46.30;20.43;;;;;;;0.19;100.00;101705.54;5214640;54;1140927;-69
2023/01/25 20:48:58;;;;;;;58.30;22.13;;;;;;;0.20;100.00;101696.85;5202084;54;1140950;-71
2023/01/25 20:54:04;;;;;;;56.03;22.77;;;;;;;0.24;100.00;101702.44;5239610;54;1140999;-68
2023/01/25 20:59:11;;;;;;;49.20;20.87;;;;;;;0.27;100.00;101693.28;5219051;55;1140880;-67
2023/01/25 21:04:18;;;;;;;50.37;21.57;;;;;;;0.30;100.00;101685.88;5179247;55;1140861;-67
2023/01/25 21:09:27;;;;;;;63.47;27.20;;;;;;;0.30;100.00;101684.13;5140277;56;1140796;-71
2023/01/25 21:14:33;;;;;;;62.70;25.30;;;;;;;0.37;100.00;101680.97;5126291;54;1140819;-70
2023/01/25 21:19:38;;;;;;;82.97;32.33;;;;;;;0.43;100.00;101689.98;5138754;54;1140773;-71
2023/01/25 21:24:45;;;;;;;65.10;26.50;;;;;;;0.47;100.00;101676.00;5185207;54;1140927;-71
2023/01/25 21:29:52;;;;;;;44.97;19.87;;;;;;;0.48;100.00;101670.36;5291290;54;1141265;-70
2023/01/25 21:34:58;;;;;;;65.00;25.23;;;;;;;0.48;100.00;101663.86;5275450;54;1141123;-71
2023/01/25 21:40:04;;;;;;;50.33;22.07;;;;;;;0.46;100.00;101661.75;5189966;54;1140989;-69
2023/01/25 21:55:57;;;;;;;54.67;22.97;;;;;;;0.40;100.00;101647.09;5012251;56;1140880;-69
2023/01/25 22:01:03;;;;;;;55.30;22.90;;;;;;;0.41;100.00;101633.20;5201576;55;1140857;-72
2023/01/25 22:06:09;;;;;;;63.40;23.40;;;;;;;0.44;100.00;101634.45;5182076;56;1140916;-73
2023/01/25 22:11:15;;;;;;;55.35;22.30;;;;;;;0.45;100.00;101633.56;5114422;55;1141083;-68
2023/01/25 22:16:21;;;;;;;45.37;21.03;;;;;;;0.52;100.00;101636.89;5102648;55;1140982;-72
2023/01/25 22:21:30;;;;;;;58.33;22.77;;;;;;;0.53;100.00;101626.91;5204387;55;1140848;-70
2023/01/25 22:27:19;;;;;;;66.73;25.23;;;;;;;0.49;100.00;101634.34;5012141;56;1140838;-70
2023/01/25 22:32:25;;;;;;;61.50;24.03;;;;;;;0.52;100.00;101629.09;5215018;55;1140795;-70
2023/01/25 22:37:30;;;;;;;66.97;24.87;;;;;;;0.53;100.00;101633.41;5031001;56;1140975;-70
2023/01/25 22:42:36;;;;;;;88.33;36.70;;;;;;;0.56;100.00;101633.36;5231833;54;1262561;-69
2023/01/25 22:47:44;;;;;;;85.33;34.23;;;;;;;0.58;100.00;101636.35;5270617;54;1141012;-70
2023/01/25 22:52:50;;;;;;;135.27;55.77;;;;;;;0.57;100.00;101629.87;5216334;54;1141087;-68
2023/01/25 22:57:56;;;;;;;97.57;37.77;;;;;;;0.61;100.00;101627.16;5205059;55;1143001;-69
2023/01/25 23:03:02;;;;;;;80.83;31.03;;;;;;;0.66;100.00;101618.83;5187141;55;1141058;-72
2023/01/25 23:08:07;;;;;;;115.13;49.23;;;;;;;0.67;100.00;101602.77;5175071;55;1140904;-67